createdAt,value
2023-04-21T04:02:08.032Z,71.31
2023-04-21T04:06:10.724Z,70.71
2023-04-21T04:10:13.267Z,70.49
2023-04-21T04:14:15.826Z,69.85
2023-04-21T04:18:19.719Z,69.80
2023-04-21T04:22:22.214Z,69.28
2023-04-21T04:26:25.176Z,68.98
2023-04-21T04:30:28.904Z,68.48
2023-04-21T04:34:32.785Z,68.28
2023-04-21T04:38:37.383Z,68.13
2023-04-21T04:42:40.529Z,68.17
2023-04-21T04:46:43.199Z,67.95
2023-04-21T04:50:47.319Z,68.11
2023-04-21T04:54:49.957Z,67.64
2023-04-21T04:58:52.471Z,67.45
2023-04-21T05:02:55.705Z,66.47
2023-04-21T05:06:59.531Z,66.43
2023-04-21T05:11:02.193Z,66.57
2023-04-21T05:15:05.212Z,66.55
2023-04-21T05:19:07.737Z,66.87
2023-04-21T05:23:11.620Z,65.66
2023-04-21T05:27:14.128Z,64.86
2023-04-21T05:31:16.662Z,64.42
2023-04-21T05:35:19.381Z,63.61
2023-04-21T05:39:23.288Z,62.84
2023-04-21T05:43:27.081Z,62.91
2023-04-21T05:47:29.604Z,62.73
2023-04-21T05:51:32.552Z,61.55
2023-04-21T05:55:37.054Z,61.56
2023-04-21T05:59:39.676Z,60.80
2023-04-21T06:03:42.395Z,60.46
2023-04-21T06:07:45.443Z,60.15
2023-04-21T06:11:50.492Z,60.13
2023-04-21T06:15:53.048Z,59.42
2023-04-21T06:19:56.004Z,59.54
2023-04-21T06:23:58.893Z,59.08
2023-04-21T06:28:02.768Z,58.86
2023-04-21T06:32:05.411Z,58.36
2023-04-21T06:36:08.553Z,57.79
2023-04-21T06:40:14.333Z,57.20
2023-04-21T06:44:18.418Z,57.70
2023-04-21T06:48:21.444Z,57.37
2023-04-21T06:52:24.014Z,56.66
2023-04-21T06:56:28.166Z,56.72
2023-04-21T07:00:32.013Z,56.21
2023-04-21T07:04:34.671Z,56.15
2023-04-21T07:08:37.354Z,55.36
2023-04-21T07:12:39.869Z,55.65
2023-04-21T07:16:43.748Z,55.33
2023-04-21T07:20:46.985Z,54.98
2023-04-21T07:24:49.711Z,54.57
2023-04-21T07:28:52.834Z,54.45
2023-04-21T07:32:56.886Z,53.88
2023-04-21T07:36:59.396Z,54.50
2023-04-21T07:41:02.118Z,53.39
2023-04-21T07:45:05.176Z,53.54
2023-04-21T07:49:09.223Z,53.08
2023-04-21T07:53:11.758Z,52.76
2023-04-21T07:57:14.421Z,52.48
2023-04-21T08:01:17.044Z,52.14
2023-04-21T08:05:21.288Z,51.44
2023-04-21T08:09:23.905Z,52.21
2023-04-21T08:13:26.410Z,50.96
2023-04-21T08:17:28.921Z,51.54
2023-04-21T08:21:33.344Z,50.14
2023-04-21T08:25:35.929Z,50.60
2023-04-21T08:29:38.595Z,49.53
2023-04-21T08:33:49.786Z,48.54
2023-04-21T08:37:58.069Z,48.57
2023-04-21T08:42:02.930Z,47.78
2023-04-21T08:46:08.651Z,47.91
2023-04-21T08:50:14.545Z,47.31
2023-04-21T08:54:18.476Z,46.69
2023-04-21T08:58:22.710Z,47.44
2023-04-21T09:02:25.367Z,46.35
2023-04-21T09:06:43.297Z,45.81
2023-04-21T09:10:49.449Z,45.01
2023-04-21T09:14:52.281Z,44.83
2023-04-21T09:18:54.818Z,44.47
2023-04-21T09:22:57.370Z,45.12
2023-04-21T09:27:04.624Z,44.94
2023-04-21T09:31:15.400Z,44.13
2023-04-21T09:35:18.022Z,43.72
2023-04-21T09:39:40.150Z,43.33
2023-04-21T09:43:48.896Z,43.71
2023-04-21T09:47:52.376Z,44.17
2023-04-21T09:56:02.383Z,42.67
2023-04-21T10:00:09.328Z,42.07
2023-04-21T10:04:12.606Z,41.89
2023-04-21T10:08:17.051Z,41.32
2023-04-21T10:12:20.370Z,41.17
2023-04-21T10:16:24.174Z,41.06
2023-04-21T10:20:26.736Z,41.21
2023-04-21T10:24:30.730Z,40.29
2023-04-21T10:28:44.927Z,40.01
2023-04-21T10:32:49.729Z,39.97
2023-04-21T10:37:17.282Z,38.84
2023-04-21T10:41:28.117Z,39.24
2023-04-21T10:45:31.742Z,37.66
2023-04-21T10:49:40.423Z,38.77
2023-04-21T10:53:44.972Z,37.87
2023-04-21T10:57:47.726Z,37.75
2023-04-21T11:01:50.406Z,37.50
2023-04-21T11:05:54.364Z,37.61
2023-04-21T11:10:01.668Z,37.80
2023-04-21T11:14:04.651Z,38.43
2023-04-21T11:18:08.622Z,36.64
2023-04-21T11:22:12.946Z,37.17
2023-04-21T11:26:15.494Z,37.14
2023-04-21T11:30:18.277Z,38.45
2023-04-21T11:34:22.036Z,37.61
2023-04-21T11:38:26.593Z,36.64
2023-04-21T11:42:29.687Z,36.35
2023-04-21T11:46:33.378Z,36.79
2023-04-21T11:50:38.693Z,36.05
2023-04-21T11:54:42.571Z,35.70
2023-04-21T11:58:45.921Z,35.94
2023-04-21T12:02:56.494Z,35.50
2023-04-21T12:07:00.918Z,36.25
2023-04-21T12:11:05.029Z,36.93
2023-04-21T12:15:09.076Z,37.46
2023-04-21T12:19:11.640Z,36.33
2023-04-21T12:23:14.142Z,36.10
2023-04-21T12:27:19.088Z,36.07
2023-04-21T12:31:21.698Z,36.22
2023-04-21T12:35:24.404Z,37.12
2023-04-21T12:39:27.512Z,36.36
2023-04-21T12:43:32.056Z,37.43
2023-04-21T12:47:37.421Z,35.71
2023-04-21T12:51:40.066Z,36.56
2023-04-21T12:55:49.707Z,36.04
2023-04-21T13:00:01.605Z,36.52
2023-04-21T13:04:04.971Z,37.29
2023-04-21T13:08:07.869Z,36.70
2023-04-21T13:12:10.492Z,36.87
2023-04-21T13:16:14.416Z,36.62
2023-04-21T13:20:19.027Z,37.12
2023-04-21T13:24:21.773Z,36.69
2023-04-21T13:28:24.578Z,36.29
2023-04-21T13:32:28.542Z,37.21
2023-04-21T13:36:31.302Z,36.81
2023-04-21T13:40:33.857Z,36.69
2023-04-21T13:44:36.423Z,36.66
2023-04-21T13:48:40.365Z,37.08
2023-04-21T13:52:42.915Z,36.08
2023-04-21T13:56:45.632Z,35.77
2023-04-21T14:00:48.157Z,36.03
2023-04-21T14:04:52.464Z,35.21
2023-04-21T14:08:55.400Z,35.37
2023-04-21T14:12:58.030Z,35.45
2023-04-21T14:17:00.648Z,35.60
2023-04-21T14:21:04.907Z,36.35
2023-04-21T14:25:08.100Z,36.54
2023-04-21T14:29:10.711Z,36.86
2023-04-21T14:33:13.309Z,37.13
2023-04-21T14:37:17.257Z,36.13
2023-04-21T14:41:19.833Z,36.23
2023-04-21T14:45:22.620Z,35.93
2023-04-21T14:49:25.277Z,36.41
2023-04-21T14:53:29.129Z,37.47
2023-04-21T14:57:31.709Z,36.71
2023-04-21T15:01:34.310Z,36.12
2023-04-21T15:05:37.103Z,36.90
2023-04-21T15:09:42.969Z,36.69
2023-04-21T15:13:45.821Z,35.33
2023-04-21T15:17:48.430Z,35.25
2023-04-21T15:21:51.066Z,34.83
2023-04-21T15:25:54.940Z,34.84
2023-04-21T15:29:58.197Z,34.81
2023-04-21T15:34:00.870Z,35.19
2023-04-21T15:38:03.444Z,34.07
2023-04-21T15:42:08.354Z,33.82
2023-04-21T15:46:13.748Z,33.74
2023-04-21T15:50:16.544Z,32.36
2023-04-21T15:54:18.976Z,32.78
2023-04-21T15:58:22.845Z,32.75
2023-04-21T16:02:25.951Z,33.19
2023-04-21T16:06:30.733Z,33.40
2023-04-21T16:10:33.441Z,32.70
2023-04-21T16:14:53.525Z,32.43
2023-04-21T16:18:59.869Z,32.67
2023-04-21T16:23:04.526Z,32.59
2023-04-21T16:27:07.173Z,32.77
2023-04-21T16:31:11.164Z,33.13
2023-04-21T16:35:13.812Z,33.06
2023-04-21T16:39:16.494Z,32.39
2023-04-21T16:43:19.080Z,33.32
2023-04-21T16:47:23.161Z,33.07
2023-04-21T16:51:28.506Z,33.23
2023-04-21T16:55:31.380Z,33.38
2023-04-21T16:59:33.810Z,33.41
2023-04-21T17:03:37.846Z,33.76
2023-04-21T17:07:43.471Z,33.70
2023-04-21T17:11:46.079Z,34.08
2023-04-21T17:15:48.796Z,34.63
2023-04-21T17:19:54.007Z,34.02
2023-04-21T17:23:56.585Z,34.74
2023-04-21T17:27:59.156Z,34.36
2023-04-21T17:32:01.744Z,34.75
2023-04-21T17:36:06.005Z,35.00
2023-04-21T17:40:10.333Z,35.69
2023-04-21T17:44:13.029Z,35.31
2023-04-21T17:48:15.803Z,36.29
2023-04-21T17:52:19.700Z,37.56
2023-04-21T17:56:22.422Z,38.15
2023-04-21T18:00:25.786Z,38.83
2023-04-21T18:04:30.659Z,39.39
2023-04-21T18:08:34.753Z,39.74
2023-04-21T18:12:37.356Z,40.41
2023-04-21T18:16:40.040Z,40.93
2023-04-21T18:20:42.965Z,42.00
2023-04-21T18:24:46.927Z,42.15
2023-04-21T18:28:49.455Z,42.06
2023-04-21T18:32:52.111Z,42.33
2023-04-21T18:36:54.752Z,43.23
2023-04-21T18:40:58.652Z,43.39
2023-04-21T18:45:03.995Z,43.38
2023-04-21T18:49:07.235Z,44.04
2023-04-21T18:53:09.819Z,44.12
2023-04-21T18:57:13.720Z,44.72
2023-04-21T19:01:16.388Z,44.95
2023-04-21T19:05:19.155Z,44.90
2023-04-21T19:09:22.683Z,45.12
2023-04-21T19:13:26.681Z,45.24
2023-04-21T19:17:29.315Z,45.50
2023-04-21T19:21:33.014Z,46.33
2023-04-21T19:25:36.713Z,46.35
2023-04-21T19:29:40.698Z,45.77
2023-04-21T19:33:43.218Z,45.60
2023-04-21T19:37:46.106Z,45.82
2023-04-21T19:41:48.651Z,46.24
2023-04-21T19:45:52.577Z,45.99
2023-04-21T19:49:55.111Z,45.93
2023-04-21T19:54:09.972Z,46.06
2023-04-21T19:58:15.991Z,45.99
2023-04-21T20:02:26.683Z,46.51
2023-04-21T20:06:29.498Z,46.10
2023-04-21T20:10:32.012Z,46.34
2023-04-21T20:14:34.524Z,46.23
2023-04-21T20:18:38.927Z,46.24
2023-04-21T20:22:41.767Z,45.67
2023-04-21T20:26:44.312Z,46.26
2023-04-21T20:30:46.865Z,46.23
2023-04-21T20:34:51.665Z,45.99
2023-04-21T20:38:54.261Z,45.97
2023-04-21T20:42:56.811Z,46.39
2023-04-21T20:46:59.706Z,46.39
2023-04-21T20:51:03.705Z,46.39
2023-04-21T20:55:06.989Z,46.95
2023-04-21T20:59:09.406Z,46.82
